This is the latest recevied weather packets stored in our database for station/object K1AWR. If no packets are shown the sender has not sent any weather packets the latest 10 day(s).
| Time | Temp. | Humidity | Pressure | Rain* | Wind** | Luminosity | Snow |
|---|---|---|---|---|---|---|---|
| 1777995649 | 23.33° C | 52% | 1010 hPa | 0 mm | - | 291 W/m² | - |
| 1777995346 | 23.33° C | 53% | 1010.2 hPa | 0 mm | - | 256 W/m² | - |
| 1777995044 | 23.33° C | 54% | 1010.2 hPa | 0 mm | - | 188 W/m² | - |
| 1777994740 | 22.78° C | 53% | 1010.3 hPa | 0 mm | - | 312 W/m² | - |
| 1777994436 | 22.78° C | 54% | 1010.4 hPa | 0 mm | - | 364 W/m² | - |
| 1777994131 | 22.78° C | 54% | 1010.5 hPa | 0 mm | - | 105 W/m² | - |
| 1777993829 | 22.22° C | 55% | 1010.4 hPa | 0 mm | - | 368 W/m² | - |
| 1777993525 | 21.67° C | 55% | 1010.5 hPa | 0 mm | - | 474 W/m² | - |
| 1777993221 | 21.67° C | 57% | 1010.7 hPa | 0 mm | - | 214 W/m² | - |
| 1777992917 | 21.11° C | 59% | 1010.5 hPa | 0 mm | - | 99 W/m² | - |
| 1777992616 | 21.11° C | 56% | 1010.5 hPa | 0 mm | - | 241 W/m² | - |
| 1777992313 | 20.56° C | 58% | 1010.6 hPa | 0 mm | - | 114 W/m² | - |
| 1777992010 | 20° C | 61% | 1010.6 hPa | 0 mm | - | 189 W/m² | - |
| 1777991709 | 19.44° C | 62% | 1010.6 hPa | 0 mm | - | 249 W/m² | - |
| 1777991405 | 18.89° C | 62% | 1010.6 hPa | 0 mm | - | 130 W/m² | - |
| 1777991102 | 18.89° C | 63% | 1010.7 hPa | 0 mm | - | 143 W/m² | - |
| 1777990799 | 17.78° C | 65% | 1010.4 hPa | 0 mm | - | 189 W/m² | - |
| 1777990496 | 17.78° C | 65% | 1010.5 hPa | 0 mm | - | 167 W/m² | - |
| 1777989890 | 17.78° C | 64% | 1010.5 hPa | 0 mm | - | 190 W/m² | - |
| 1777989587 | 17.22° C | 67% | 1010.4 hPa | 0 mm | - | 174 W/m² | - |
| 1777989283 | 16.67° C | 69% | 1010.1 hPa | 0 mm | - | 155 W/m² | - |
| 1777988979 | 16.67° C | 69% | 1010.1 hPa | 0 mm | - | 155 W/m² | - |
| 1777988676 | 16.67° C | 67% | 1010.2 hPa | 0 mm | - | 135 W/m² | - |
| 1777988373 | 16.67° C | 70% | 1010.4 hPa | 0 mm | - | 125 W/m² | - |
| 1777988070 | 16.67° C | 69% | 1010.2 hPa | 0 mm | - | 121 W/m² | - |
* Rain latest hour (hover to see other rain measurements)
** Current wind speed in m/s (hover to see current wind gust speed)